Roscommon, Michigan
Current Conditions -  °F | °C
As of 10:53 AM on Sunday 21 Dec 2014 (Local Time) from KHTL Reporting Station
Haze Haze  
Wind Chill: 19°   Ceiling: 400
Heat Index: 27°   Visibility: 1.7mi
Dew Point: 25°   Wind: 7mph
Humidity: 92%   Direction: 160°SSE
Pressure: 30.22"   Gusts: NA
Location:  44.5°N, 84.59°W
Report Text: KHTL 211553Z AUTO 16006KT 1 3/4SM BR OVC004 M03/M04 A3022 RMK AO2 SLP252 T10281039
Loading
Personal Weather Stations






























Interactive Weather Map New forecast layout! Learn more

10-Day Weather Forecast

Advertisements
Track Severe Weather on mobile